Cheney, Washington
Current Conditions -  °F | °C
As of 10:58 AM on Saturday 25 Oct 2014 (Local Time) from KSKA Reporting Station
Scattered Clouds Scattered Clouds  
Wind Chill: 52°   Ceiling: Unl
Heat Index: 52°   Visibility: 10mi
Dew Point: 43°   Wind: 15mph
Humidity: 71%   Direction: 70°ENE
Pressure: 29.63"   Gusts: NA
Location:  47.49°N, 117.57°W
Report Text: KSKA 251758Z AUTO 07013KT 10SM FEW110 SCT140 11/06 A2963 RMK AO2 SLP037 60000 T01100060 10110 20058 57022
Loading
Personal Weather Stations






























Interactive Weather Map
Tropical Storm Tracking
New forecast layout! Learn more

10-Day Weather Forecast

Advertisements
Track Severe Weather on mobile